sensor_id;sensor_type;location;lat;lon;timestamp;pressure;altitude;pressure_sealevel;temperature;humidity
31681;BME280;18281;51.364;9.566;2023-04-22T00:01:27;99377.97;;;11.38;81.84
31681;BME280;18281;51.364;9.566;2023-04-22T00:03:53;99375.22;;;11.40;81.44
31681;BME280;18281;51.364;9.566;2023-04-22T00:06:18;99374.38;;;11.39;81.51
31681;BME280;18281;51.364;9.566;2023-04-22T00:08:43;99372.59;;;11.27;82.35
31681;BME280;18281;51.364;9.566;2023-04-22T00:11:09;99372.69;;;11.25;82.65
31681;BME280;18281;51.364;9.566;2023-04-22T00:13:34;99377.53;;;11.19;82.79
31681;BME280;18281;51.364;9.566;2023-04-22T00:16:02;99375.41;;;11.11;83.36
31681;BME280;18281;51.364;9.566;2023-04-22T00:18:27;99373.66;;;11.12;83.39
31681;BME280;18281;51.364;9.566;2023-04-22T00:20:53;99367.22;;;11.03;83.96
31681;BME280;18281;51.364;9.566;2023-04-22T00:23:18;99373.75;;;10.97;84.76
31681;BME280;18281;51.364;9.566;2023-04-22T00:25:43;99368.59;;;10.96;84.53
31681;BME280;18281;51.364;9.566;2023-04-22T00:28:09;99382.13;;;10.89;85.13
31681;BME280;18281;51.364;9.566;2023-04-22T00:30:35;99384.44;;;10.81;85.57
31681;BME280;18281;51.364;9.566;2023-04-22T00:33:00;99385.06;;;10.85;84.72
31681;BME280;18281;51.364;9.566;2023-04-22T00:35:26;99386.47;;;10.76;85.65
31681;BME280;18281;51.364;9.566;2023-04-22T00:37:51;99384.25;;;10.70;85.73
31681;BME280;18281;51.364;9.566;2023-04-22T00:40:17;99378.50;;;10.65;86.28
31681;BME280;18281;51.364;9.566;2023-04-22T00:42:45;99384.91;;;10.61;86.42
31681;BME280;18281;51.364;9.566;2023-04-22T00:45:14;99387.34;;;10.49;87.57
31681;BME280;18281;51.364;9.566;2023-04-22T00:47:43;99385.78;;;10.47;87.07
31681;BME280;18281;51.364;9.566;2023-04-22T00:50:09;99391.88;;;10.47;86.41
31681;BME280;18281;51.364;9.566;2023-04-22T00:52:34;99389.66;;;10.41;87.59
31681;BME280;18281;51.364;9.566;2023-04-22T00:54:59;99392.47;;;10.38;87.67
31681;BME280;18281;51.364;9.566;2023-04-22T00:57:26;99392.78;;;10.19;88.88
31681;BME280;18281;51.364;9.566;2023-04-22T00:59:54;99393.56;;;10.21;89.02
31681;BME280;18281;51.364;9.566;2023-04-22T01:02:19;99391.41;;;10.13;88.98
31681;BME280;18281;51.364;9.566;2023-04-22T01:04:45;99390.59;;;10.13;88.87
31681;BME280;18281;51.364;9.566;2023-04-22T01:07:10;99392.75;;;10.06;89.49
31681;BME280;18281;51.364;9.566;2023-04-22T01:09:36;99398.00;;;10.06;89.14
31681;BME280;18281;51.364;9.566;2023-04-22T01:12:04;99393.53;;;9.94;90.38
31681;BME280;18281;51.364;9.566;2023-04-22T01:14:29;99397.47;;;9.86;90.81
31681;BME280;18281;51.364;9.566;2023-04-22T01:16:55;99390.34;;;9.88;89.96
31681;BME280;18281;51.364;9.566;2023-04-22T01:19:20;99389.91;;;9.82;90.44
31681;BME280;18281;51.364;9.566;2023-04-22T01:21:49;99395.31;;;9.79;91.12
31681;BME280;18281;51.364;9.566;2023-04-22T01:24:15;99396.53;;;9.73;91.03
31681;BME280;18281;51.364;9.566;2023-04-22T01:26:41;99402.19;;;9.67;91.39
31681;BME280;18281;51.364;9.566;2023-04-22T01:29:06;99401.69;;;9.60;91.63
31681;BME280;18281;51.364;9.566;2023-04-22T01:31:32;99398.50;;;9.55;92.97
31681;BME280;18281;51.364;9.566;2023-04-22T01:33:58;99397.06;;;9.49;93.07
31681;BME280;18281;51.364;9.566;2023-04-22T01:36:23;99402.69;;;9.43;92.77
31681;BME280;18281;51.364;9.566;2023-04-22T01:38:49;99405.53;;;9.40;93.81
31681;BME280;18281;51.364;9.566;2023-04-22T01:41:15;99407.38;;;9.38;93.65
31681;BME280;18281;51.364;9.566;2023-04-22T01:43:41;99409.63;;;9.30;94.39
31681;BME280;18281;51.364;9.566;2023-04-22T01:46:07;99402.22;;;9.22;94.74
31681;BME280;18281;51.364;9.566;2023-04-22T01:48:33;99402.66;;;9.14;95.78
31681;BME280;18281;51.364;9.566;2023-04-22T01:50:59;99408.84;;;9.13;95.50
31681;BME280;18281;51.364;9.566;2023-04-22T01:53:25;99408.47;;;9.19;94.59
31681;BME280;18281;51.364;9.566;2023-04-22T01:55:51;99412.00;;;9.04;96.12
31681;BME280;18281;51.364;9.566;2023-04-22T01:58:16;99402.47;;;9.03;95.74
31681;BME280;18281;51.364;9.566;2023-04-22T02:00:42;99413.78;;;9.03;95.00
31681;BME280;18281;51.364;9.566;2023-04-22T02:03:07;99410.66;;;8.97;96.56
31681;BME280;18281;51.364;9.566;2023-04-22T02:05:32;99413.38;;;8.95;95.77
31681;BME280;18281;51.364;9.566;2023-04-22T02:07:58;99409.34;;;8.89;97.18
31681;BME280;18281;51.364;9.566;2023-04-22T02:10:23;99413.25;;;8.82;99.01
31681;BME280;18281;51.364;9.566;2023-04-22T02:12:48;99411.72;;;8.78;98.82
31681;BME280;18281;51.364;9.566;2023-04-22T02:15:14;99416.91;;;8.80;97.78
31681;BME280;18281;51.364;9.566;2023-04-22T02:17:40;99409.50;;;8.72;98.21
31681;BME280;18281;51.364;9.566;2023-04-22T02:20:07;99409.75;;;8.67;98.75
31681;BME280;18281;51.364;9.566;2023-04-22T02:22:32;99411.78;;;8.62;99.75
31681;BME280;18281;51.364;9.566;2023-04-22T02:24:58;99410.53;;;8.53;100.00
31681;BME280;18281;51.364;9.566;2023-04-22T02:27:23;99414.31;;;8.64;100.00
31681;BME280;18281;51.364;9.566;2023-04-22T02:29:49;99414.75;;;8.56;100.00
31681;BME280;18281;51.364;9.566;2023-04-22T02:32:15;99418.56;;;8.50;100.00
31681;BME280;18281;51.364;9.566;2023-04-22T02:34:41;99419.00;;;8.43;100.00
31681;BME280;18281;51.364;9.566;2023-04-22T02:37:06;99423.22;;;8.45;100.00
31681;BME280;18281;51.364;9.566;2023-04-22T02:39:32;99426.56;;;8.47;100.00
31681;BME280;18281;51.364;9.566;2023-04-22T02:41:57;99428.06;;;8.35;100.00
31681;BME280;18281;51.364;9.566;2023-04-22T02:44:23;99419.56;;;8.16;100.00
31681;BME280;18281;51.364;9.566;2023-04-22T02:46:48;99424.03;;;8.14;100.00
31681;BME280;18281;51.364;9.566;2023-04-22T02:49:13;99430.75;;;8.34;100.00
31681;BME280;18281;51.364;9.566;2023-04-22T02:51:39;99418.31;;;8.39;100.00
31681;BME280;18281;51.364;9.566;2023-04-22T02:54:04;99419.91;;;8.25;100.00
31681;BME280;18281;51.364;9.566;2023-04-22T02:56:29;99414.56;;;8.27;100.00
31681;BME280;18281;51.364;9.566;2023-04-22T02:58:56;99422.69;;;8.22;100.00
31681;BME280;18281;51.364;9.566;2023-04-22T03:01:21;99416.19;;;8.14;100.00
31681;BME280;18281;51.364;9.566;2023-04-22T03:03:47;99413.41;;;8.17;100.00
31681;BME280;18281;51.364;9.566;2023-04-22T03:06:12;99418.13;;;8.10;100.00
31681;BME280;18281;51.364;9.566;2023-04-22T03:08:37;99419.81;;;8.11;100.00
31681;BME280;18281;51.364;9.566;2023-04-22T03:11:03;99416.53;;;8.07;100.00
31681;BME280;18281;51.364;9.566;2023-04-22T03:13:29;99415.44;;;7.96;100.00
31681;BME280;18281;51.364;9.566;2023-04-22T03:15:54;99420.13;;;7.73;100.00
31681;BME280;18281;51.364;9.566;2023-04-22T03:18:19;99418.69;;;7.67;100.00
31681;BME280;18281;51.364;9.566;2023-04-22T03:20:45;99421.47;;;7.80;100.00
31681;BME280;18281;51.364;9.566;2023-04-22T03:23:10;99428.06;;;7.87;100.00
31681;BME280;18281;51.364;9.566;2023-04-22T03:25:35;99414.22;;;7.85;100.00
31681;BME280;18281;51.364;9.566;2023-04-22T03:28:01;99415.59;;;7.77;100.00
31681;BME280;18281;51.364;9.566;2023-04-22T03:30:27;99417.00;;;7.82;100.00
31681;BME280;18281;51.364;9.566;2023-04-22T03:32:52;99412.53;;;7.84;100.00
31681;BME280;18281;51.364;9.566;2023-04-22T03:35:19;99413.50;;;7.66;100.00
31681;BME280;18281;51.364;9.566;2023-04-22T03:37:44;99409.91;;;7.68;100.00
31681;BME280;18281;51.364;9.566;2023-04-22T03:40:10;99418.09;;;7.62;100.00
31681;BME280;18281;51.364;9.566;2023-04-22T03:42:35;99410.88;;;7.83;100.00
31681;BME280;18281;51.364;9.566;2023-04-22T03:45:01;99418.09;;;7.78;100.00
31681;BME280;18281;51.364;9.566;2023-04-22T03:47:26;99414.19;;;7.69;100.00
31681;BME280;18281;51.364;9.566;2023-04-22T03:49:51;99419.78;;;7.79;100.00
31681;BME280;18281;51.364;9.566;2023-04-22T03:52:17;99412.31;;;7.89;100.00
31681;BME280;18281;51.364;9.566;2023-04-22T03:54:42;99418.53;;;7.86;100.00
31681;BME280;18281;51.364;9.566;2023-04-22T03:57:07;99415.16;;;7.84;100.00
31681;BME280;18281;51.364;9.566;2023-04-22T03:59:32;99410.69;;;7.86;100.00
31681;BME280;18281;51.364;9.566;2023-04-22T04:01:58;99413.63;;;7.80;100.00
31681;BME280;18281;51.364;9.566;2023-04-22T04:04:23;99414.53;;;7.79;100.00
31681;BME280;18281;51.364;9.566;2023-04-22T04:06:51;99415.91;;;7.70;100.00
31681;BME280;18281;51.364;9.566;2023-04-22T04:09:22;99414.81;;;7.74;100.00
31681;BME280;18281;51.364;9.566;2023-04-22T04:11:47;99415.22;;;7.67;100.00
31681;BME280;18281;51.364;9.566;2023-04-22T04:14:13;99410.31;;;7.61;100.00
31681;BME280;18281;51.364;9.566;2023-04-22T04:16:38;99415.78;;;7.56;100.00
31681;BME280;18281;51.364;9.566;2023-04-22T04:19:04;99411.25;;;7.60;100.00
31681;BME280;18281;51.364;9.566;2023-04-22T04:21:30;99410.47;;;7.57;100.00
31681;BME280;18281;51.364;9.566;2023-04-22T04:23:57;99406.81;;;7.44;100.00
31681;BME280;18281;51.364;9.566;2023-04-22T04:26:23;99416.63;;;7.56;100.00
31681;BME280;18281;51.364;9.566;2023-04-22T04:28:49;99410.28;;;7.45;100.00
31681;BME280;18281;51.364;9.566;2023-04-22T04:31:14;99402.22;;;7.32;100.00
31681;BME280;18281;51.364;9.566;2023-04-22T04:33:40;99408.06;;;7.37;100.00
31681;BME280;18281;51.364;9.566;2023-04-22T04:36:05;99412.56;;;7.51;100.00
31681;BME280;18281;51.364;9.566;2023-04-22T04:38:32;99400.97;;;7.39;100.00
31681;BME280;18281;51.364;9.566;2023-04-22T04:40:58;99400.31;;;7.35;100.00
31681;BME280;18281;51.364;9.566;2023-04-22T04:43:23;99401.72;;;7.25;100.00
31681;BME280;18281;51.364;9.566;2023-04-22T04:45:50;99402.41;;;7.29;100.00
31681;BME280;18281;51.364;9.566;2023-04-22T04:48:17;99397.31;;;7.26;100.00
31681;BME280;18281;51.364;9.566;2023-04-22T04:50:44;99398.09;;;7.28;100.00
31681;BME280;18281;51.364;9.566;2023-04-22T04:53:10;99399.25;;;7.22;100.00
31681;BME280;18281;51.364;9.566;2023-04-22T04:55:35;99399.44;;;7.35;100.00
31681;BME280;18281;51.364;9.566;2023-04-22T04:58:01;99404.75;;;7.33;100.00
31681;BME280;18281;51.364;9.566;2023-04-22T05:00:26;99402.00;;;7.36;100.00
31681;BME280;18281;51.364;9.566;2023-04-22T05:02:52;99401.75;;;7.41;100.00
31681;BME280;18281;51.364;9.566;2023-04-22T05:05:17;99404.69;;;7.35;100.00
31681;BME280;18281;51.364;9.566;2023-04-22T05:07:43;99410.19;;;7.46;100.00
31681;BME280;18281;51.364;9.566;2023-04-22T05:10:09;99403.22;;;7.29;100.00
31681;BME280;18281;51.364;9.566;2023-04-22T05:12:34;99404.78;;;7.16;100.00
31681;BME280;18281;51.364;9.566;2023-04-22T05:14:59;99405.78;;;7.13;100.00
31681;BME280;18281;51.364;9.566;2023-04-22T05:17:25;99411.63;;;7.18;100.00
31681;BME280;18281;51.364;9.566;2023-04-22T05:19:51;99415.00;;;7.20;100.00
31681;BME280;18281;51.364;9.566;2023-04-22T05:22:16;99408.28;;;7.32;100.00
31681;BME280;18281;51.364;9.566;2023-04-22T05:24:42;99409.06;;;7.34;100.00
31681;BME280;18281;51.364;9.566;2023-04-22T05:27:07;99415.34;;;7.48;100.00
31681;BME280;18281;51.364;9.566;2023-04-22T05:29:33;99418.47;;;7.54;100.00
31681;BME280;18281;51.364;9.566;2023-04-22T05:31:59;99414.69;;;7.60;100.00
31681;BME280;18281;51.364;9.566;2023-04-22T05:34:24;99421.00;;;7.56;100.00
31681;BME280;18281;51.364;9.566;2023-04-22T05:36:49;99417.69;;;7.52;100.00
31681;BME280;18281;51.364;9.566;2023-04-22T05:39:15;99412.75;;;7.64;100.00
31681;BME280;18281;51.364;9.566;2023-04-22T05:41:40;99414.03;;;7.72;100.00
31681;BME280;18281;51.364;9.566;2023-04-22T05:44:06;99412.63;;;7.83;100.00
31681;BME280;18281;51.364;9.566;2023-04-22T05:46:32;99411.25;;;7.60;100.00
31681;BME280;18281;51.364;9.566;2023-04-22T05:48:57;99408.16;;;7.69;100.00
31681;BME280;18281;51.364;9.566;2023-04-22T05:51:23;99408.91;;;7.87;100.00
31681;BME280;18281;51.364;9.566;2023-04-22T05:53:49;99416.41;;;7.77;100.00
31681;BME280;18281;51.364;9.566;2023-04-22T05:56:14;99410.50;;;7.73;100.00
31681;BME280;18281;51.364;9.566;2023-04-22T05:58:40;99407.22;;;7.86;100.00
31681;BME280;18281;51.364;9.566;2023-04-22T06:01:06;99407.06;;;7.89;100.00
31681;BME280;18281;51.364;9.566;2023-04-22T06:03:31;99405.22;;;8.07;100.00
31681;BME280;18281;51.364;9.566;2023-04-22T06:05:57;99399.06;;;8.08;100.00
31681;BME280;18281;51.364;9.566;2023-04-22T06:08:22;99397.03;;;8.13;100.00
31681;BME280;18281;51.364;9.566;2023-04-22T06:10:48;99389.78;;;8.18;100.00
31681;BME280;18281;51.364;9.566;2023-04-22T06:13:14;99391.13;;;8.25;100.00
31681;BME280;18281;51.364;9.566;2023-04-22T06:15:39;99383.22;;;9.04;100.00
31681;BME280;18281;51.364;9.566;2023-04-22T06:18:05;99383.81;;;9.52;100.00
31681;BME280;18281;51.364;9.566;2023-04-22T06:20:30;99381.38;;;9.78;100.00
31681;BME280;18281;51.364;9.566;2023-04-22T06:22:57;99384.16;;;9.89;100.00
31681;BME280;18281;51.364;9.566;2023-04-22T06:25:22;99375.56;;;9.87;100.00
31681;BME280;18281;51.364;9.566;2023-04-22T06:27:48;99382.28;;;9.91;100.00
31681;BME280;18281;51.364;9.566;2023-04-22T06:30:13;99376.47;;;10.01;100.00
31681;BME280;18281;51.364;9.566;2023-04-22T06:32:39;99382.44;;;10.03;100.00
31681;BME280;18281;51.364;9.566;2023-04-22T06:35:05;99377.56;;;10.11;100.00
31681;BME280;18281;51.364;9.566;2023-04-22T06:37:32;99376.63;;;10.12;100.00
31681;BME280;18281;51.364;9.566;2023-04-22T06:39:57;99382.03;;;10.23;100.00
31681;BME280;18281;51.364;9.566;2023-04-22T06:42:23;99375.66;;;10.68;96.85
31681;BME280;18281;51.364;9.566;2023-04-22T06:44:48;99375.94;;;10.63;97.04
31681;BME280;18281;51.364;9.566;2023-04-22T06:47:13;99374.25;;;10.49;98.39
31681;BME280;18281;51.364;9.566;2023-04-22T06:49:38;99371.81;;;10.46;99.45
31681;BME280;18281;51.364;9.566;2023-04-22T06:52:04;99372.81;;;10.58;99.32
31681;BME280;18281;51.364;9.566;2023-04-22T06:54:30;99369.13;;;10.61;99.15
31681;BME280;18281;51.364;9.566;2023-04-22T06:56:56;99374.19;;;10.64;100.00
31681;BME280;18281;51.364;9.566;2023-04-22T06:59:22;99377.44;;;10.67;100.00
31681;BME280;18281;51.364;9.566;2023-04-22T07:01:47;99371.22;;;10.68;100.00
31681;BME280;18281;51.364;9.566;2023-04-22T07:04:12;99370.00;;;10.74;100.00
31681;BME280;18281;51.364;9.566;2023-04-22T07:06:38;99372.88;;;10.84;99.92
31681;BME280;18281;51.364;9.566;2023-04-22T07:09:03;99364.91;;;10.85;99.00
31681;BME280;18281;51.364;9.566;2023-04-22T07:11:29;99366.59;;;10.86;97.93
31681;BME280;18281;51.364;9.566;2023-04-22T07:13:56;99366.81;;;10.96;100.00
31681;BME280;18281;51.364;9.566;2023-04-22T07:16:21;99362.72;;;11.05;99.72
31681;BME280;18281;51.364;9.566;2023-04-22T07:18:47;99355.56;;;11.07;100.00
31681;BME280;18281;51.364;9.566;2023-04-22T07:21:12;99361.34;;;11.12;100.00
31681;BME280;18281;51.364;9.566;2023-04-22T07:23:37;99360.31;;;11.15;99.07
31681;BME280;18281;51.364;9.566;2023-04-22T07:26:03;99358.50;;;11.28;98.21
31681;BME280;18281;51.364;9.566;2023-04-22T07:28:31;99358.81;;;11.36;99.15
31681;BME280;18281;51.364;9.566;2023-04-22T07:30:56;99359.00;;;11.46;98.34
31681;BME280;18281;51.364;9.566;2023-04-22T07:33:22;99352.91;;;11.58;98.91
31681;BME280;18281;51.364;9.566;2023-04-22T07:35:47;99349.94;;;11.63;98.17
31681;BME280;18281;51.364;9.566;2023-04-22T07:38:13;99348.97;;;11.77;99.52
31681;BME280;18281;51.364;9.566;2023-04-22T07:40:38;99344.22;;;11.82;98.06
31681;BME280;18281;51.364;9.566;2023-04-22T07:43:04;99348.72;;;11.93;98.25
31681;BME280;18281;51.364;9.566;2023-04-22T07:45:30;99341.44;;;12.09;97.27
31681;BME280;18281;51.364;9.566;2023-04-22T07:47:59;99337.78;;;12.23;96.03
31681;BME280;18281;51.364;9.566;2023-04-22T07:50:24;99336.81;;;12.24;95.33
31681;BME280;18281;51.364;9.566;2023-04-22T07:52:49;99337.25;;;12.42;95.17
31681;BME280;18281;51.364;9.566;2023-04-22T07:55:15;99328.66;;;12.52;93.79
31681;BME280;18281;51.364;9.566;2023-04-22T07:57:42;99324.91;;;12.67;92.38
31681;BME280;18281;51.364;9.566;2023-04-22T08:00:09;99329.59;;;12.86;90.74
31681;BME280;18281;51.364;9.566;2023-04-22T08:02:37;99327.75;;;13.00;90.23
31681;BME280;18281;51.364;9.566;2023-04-22T08:05:03;99329.91;;;13.06;89.95
31681;BME280;18281;51.364;9.566;2023-04-22T08:07:28;99325.94;;;13.23;88.03
31681;BME280;18281;51.364;9.566;2023-04-22T08:09:54;99319.50;;;13.38;88.28
31681;BME280;18281;51.364;9.566;2023-04-22T08:12:20;99316.97;;;13.48;87.95
31681;BME280;18281;51.364;9.566;2023-04-22T08:14:46;99321.63;;;13.56;87.45
31681;BME280;18281;51.364;9.566;2023-04-22T08:17:11;99312.88;;;13.67;86.90
31681;BME280;18281;51.364;9.566;2023-04-22T08:19:40;99318.59;;;13.83;86.27
31681;BME280;18281;51.364;9.566;2023-04-22T08:22:05;99315.97;;;13.95;84.68
31681;BME280;18281;51.364;9.566;2023-04-22T08:24:31;99306.44;;;14.15;84.72
31681;BME280;18281;51.364;9.566;2023-04-22T08:26:56;99304.88;;;14.12;84.67
31681;BME280;18281;51.364;9.566;2023-04-22T08:29:24;99304.59;;;14.15;84.78
31681;BME280;18281;51.364;9.566;2023-04-22T08:31:50;99308.63;;;14.31;84.89
31681;BME280;18281;51.364;9.566;2023-04-22T08:34:15;99303.56;;;14.39;84.74
31681;BME280;18281;51.364;9.566;2023-04-22T08:36:41;99307.81;;;14.51;84.32
31681;BME280;18281;51.364;9.566;2023-04-22T08:39:06;99299.31;;;14.69;82.71
31681;BME280;18281;51.364;9.566;2023-04-22T08:41:33;99298.53;;;14.78;82.42
31681;BME280;18281;51.364;9.566;2023-04-22T08:43:59;99300.59;;;14.96;81.25
31681;BME280;18281;51.364;9.566;2023-04-22T08:46:25;99304.84;;;15.08;81.04
31681;BME280;18281;51.364;9.566;2023-04-22T08:48:52;99295.88;;;15.20;81.55
31681;BME280;18281;51.364;9.566;2023-04-22T08:51:18;99302.28;;;15.27;81.11
31681;BME280;18281;51.364;9.566;2023-04-22T08:53:44;99305.94;;;15.36;80.82
31681;BME280;18281;51.364;9.566;2023-04-22T08:56:11;99301.41;;;15.48;79.99
31681;BME280;18281;51.364;9.566;2023-04-22T08:58:39;99309.78;;;15.63;79.81
31681;BME280;18281;51.364;9.566;2023-04-22T09:01:06;99313.88;;;15.77;80.17
31681;BME280;18281;51.364;9.566;2023-04-22T09:03:32;99307.47;;;15.89;78.98
31681;BME280;18281;51.364;9.566;2023-04-22T09:06:02;99299.00;;;16.05;78.19
31681;BME280;18281;51.364;9.566;2023-04-22T09:08:27;99304.59;;;16.12;78.84
31681;BME280;18281;51.364;9.566;2023-04-22T09:10:53;99304.31;;;16.25;77.47
31681;BME280;18281;51.364;9.566;2023-04-22T09:13:20;99300.41;;;16.29;78.97
31681;BME280;18281;51.364;9.566;2023-04-22T09:15:47;99296.22;;;16.36;78.17
31681;BME280;18281;51.364;9.566;2023-04-22T09:18:16;99297.06;;;16.56;75.69
31681;BME280;18281;51.364;9.566;2023-04-22T09:20:41;99303.19;;;16.67;78.16
31681;BME280;18281;51.364;9.566;2023-04-22T09:23:06;99297.44;;;16.81;77.37
31681;BME280;18281;51.364;9.566;2023-04-22T09:25:33;99290.84;;;16.95;77.91
31681;BME280;18281;51.364;9.566;2023-04-22T09:27:59;99292.88;;;17.11;75.85
31681;BME280;18281;51.364;9.566;2023-04-22T09:30:27;99300.00;;;17.10;76.25
31681;BME280;18281;51.364;9.566;2023-04-22T09:32:55;99301.09;;;17.18;75.68
31681;BME280;18281;51.364;9.566;2023-04-22T09:35:40;99298.38;;;17.27;74.66
31681;BME280;18281;51.364;9.566;2023-04-22T09:38:07;99296.97;;;17.43;73.33
31681;BME280;18281;51.364;9.566;2023-04-22T09:40:34;99291.19;;;17.48;74.60
31681;BME280;18281;51.364;9.566;2023-04-22T09:43:02;99287.41;;;17.50;74.83
31681;BME280;18281;51.364;9.566;2023-04-22T09:45:34;99284.09;;;17.48;74.23
31681;BME280;18281;51.364;9.566;2023-04-22T09:48:17;99290.53;;;17.64;73.93
31681;BME280;18281;51.364;9.566;2023-04-22T09:50:46;99282.53;;;17.73;74.00
31681;BME280;18281;51.364;9.566;2023-04-22T09:53:14;99280.72;;;17.74;73.58
31681;BME280;18281;51.364;9.566;2023-04-22T09:55:42;99274.81;;;17.80;74.62
31681;BME280;18281;51.364;9.566;2023-04-22T09:58:10;99287.63;;;17.85;73.53
31681;BME280;18281;51.364;9.566;2023-04-22T10:00:50;99279.34;;;17.88;72.08
31681;BME280;18281;51.364;9.566;2023-04-22T10:03:16;99269.97;;;17.93;72.33
31681;BME280;18281;51.364;9.566;2023-04-22T10:05:43;99277.78;;;17.95;73.06
31681;BME280;18281;51.364;9.566;2023-04-22T10:08:10;99262.22;;;18.00;70.96
31681;BME280;18281;51.364;9.566;2023-04-22T10:10:37;99261.09;;;18.03;69.24
31681;BME280;18281;51.364;9.566;2023-04-22T10:13:03;99264.56;;;18.21;68.72
31681;BME280;18281;51.364;9.566;2023-04-22T10:15:35;99263.53;;;18.32;70.58
31681;BME280;18281;51.364;9.566;2023-04-22T10:18:04;99263.06;;;18.37;70.42
31681;BME280;18281;51.364;9.566;2023-04-22T10:20:32;99264.78;;;18.46;70.72
31681;BME280;18281;51.364;9.566;2023-04-22T10:23:03;99256.34;;;18.51;69.98
31681;BME280;18281;51.364;9.566;2023-04-22T10:25:29;99245.25;;;18.55;70.87
31681;BME280;18281;51.364;9.566;2023-04-22T10:28:01;99241.19;;;18.43;70.54
31681;BME280;18281;51.364;9.566;2023-04-22T10:30:28;99244.97;;;18.67;68.14
31681;BME280;18281;51.364;9.566;2023-04-22T10:32:54;99240.81;;;18.64;69.86
31681;BME280;18281;51.364;9.566;2023-04-22T10:35:26;99251.84;;;18.77;66.51
31681;BME280;18281;51.364;9.566;2023-04-22T10:37:52;99248.69;;;18.74;64.89
31681;BME280;18281;51.364;9.566;2023-04-22T10:40:18;99257.38;;;18.84;65.69
31681;BME280;18281;51.364;9.566;2023-04-22T10:42:50;99250.63;;;18.90;67.78
31681;BME280;18281;51.364;9.566;2023-04-22T10:45:16;99238.16;;;18.90;67.35
31681;BME280;18281;51.364;9.566;2023-04-22T10:47:42;99244.03;;;19.02;68.28
31681;BME280;18281;51.364;9.566;2023-04-22T10:50:26;99245.91;;;19.10;67.08
31681;BME280;18281;51.364;9.566;2023-04-22T10:52:57;99234.25;;;19.11;66.70
31681;BME280;18281;51.364;9.566;2023-04-22T10:55:23;99237.78;;;19.20;66.24
31681;BME280;18281;51.364;9.566;2023-04-22T10:57:50;99233.47;;;19.19;66.89
31681;BME280;18281;51.364;9.566;2023-04-22T11:00:24;99233.66;;;19.25;66.22
31681;BME280;18281;51.364;9.566;2023-04-22T11:09:39;99212.63;;;19.57;64.54
31681;BME280;18281;51.364;9.566;2023-04-22T11:12:57;99226.09;;;19.55;63.37
31681;BME280;18281;51.364;9.566;2023-04-22T11:15:19;99204.84;;;19.64;62.93
31681;BME280;18281;51.364;9.566;2023-04-22T11:20:52;99202.84;;;19.74;63.70
31681;BME280;18281;51.364;9.566;2023-04-22T11:23:27;99206.34;;;19.74;63.80
31681;BME280;18281;51.364;9.566;2023-04-22T11:25:54;99195.53;;;19.76;65.35
31681;BME280;18281;51.364;9.566;2023-04-22T11:28:20;99197.53;;;19.82;64.17
31681;BME280;18281;51.364;9.566;2023-04-22T11:30:47;99194.19;;;19.88;61.94
31681;BME280;18281;51.364;9.566;2023-04-22T11:33:14;99203.22;;;19.96;62.85
31681;BME280;18281;51.364;9.566;2023-04-22T11:35:40;99186.53;;;19.93;62.22
31681;BME280;18281;51.364;9.566;2023-04-22T11:38:07;99197.03;;;19.95;63.83
31681;BME280;18281;51.364;9.566;2023-04-22T11:40:40;99190.38;;;20.07;64.28
31681;BME280;18281;51.364;9.566;2023-04-22T11:43:07;99188.88;;;20.13;62.26
31681;BME280;18281;51.364;9.566;2023-04-22T11:45:34;99194.88;;;20.07;63.07
31681;BME280;18281;51.364;9.566;2023-04-22T11:48:01;99193.19;;;19.98;59.33
31681;BME280;18281;51.364;9.566;2023-04-22T11:50:30;99194.88;;;19.99;63.14
31681;BME280;18281;51.364;9.566;2023-04-22T11:52:58;99185.53;;;20.03;63.38
31681;BME280;18281;51.364;9.566;2023-04-22T11:55:31;99192.53;;;20.12;61.82
31681;BME280;18281;51.364;9.566;2023-04-22T11:58:09;99195.53;;;20.17;61.40
31681;BME280;18281;51.364;9.566;2023-04-22T12:00:38;99177.53;;;20.19;62.51
31681;BME280;18281;51.364;9.566;2023-04-22T12:08:15;99177.53;;;20.19;57.66
31681;BME280;18281;51.364;9.566;2023-04-22T12:10:52;99173.56;;;19.90;58.17
31681;BME280;18281;51.364;9.566;2023-04-22T12:13:21;99172.72;;;20.06;60.26
31681;BME280;18281;51.364;9.566;2023-04-22T12:15:46;99172.56;;;20.08;58.78
31681;BME280;18281;51.364;9.566;2023-04-22T12:18:12;99170.03;;;20.31;60.37
31681;BME280;18281;51.364;9.566;2023-04-22T12:20:41;99164.88;;;20.38;59.49
31681;BME280;18281;51.364;9.566;2023-04-22T12:23:15;99163.56;;;20.34;59.50
31681;BME280;18281;51.364;9.566;2023-04-22T12:25:41;99154.88;;;20.40;61.26
31681;BME280;18281;51.364;9.566;2023-04-22T12:28:08;99161.69;;;20.51;59.23
31681;BME280;18281;51.364;9.566;2023-04-22T12:30:34;99164.53;;;20.49;59.58
31681;BME280;18281;51.364;9.566;2023-04-22T12:32:59;99165.47;;;20.65;60.76
31681;BME280;18281;51.364;9.566;2023-04-22T12:35:24;99153.63;;;20.67;61.19
31681;BME280;18281;51.364;9.566;2023-04-22T12:37:51;99158.13;;;20.58;59.63
31681;BME280;18281;51.364;9.566;2023-04-22T12:40:16;99165.84;;;20.53;58.67
31681;BME280;18281;51.364;9.566;2023-04-22T12:42:42;99171.84;;;20.47;55.64
31681;BME280;18281;51.364;9.566;2023-04-22T12:45:08;99173.22;;;20.26;55.89
31681;BME280;18281;51.364;9.566;2023-04-22T12:47:39;99174.56;;;20.22;55.14
31681;BME280;18281;51.364;9.566;2023-04-22T12:50:07;99155.88;;;20.14;55.85
31681;BME280;18281;51.364;9.566;2023-04-22T12:52:34;99151.06;;;20.18;57.92
31681;BME280;18281;51.364;9.566;2023-04-22T12:55:00;99153.03;;;20.32;55.89
31681;BME280;18281;51.364;9.566;2023-04-22T12:57:29;99148.53;;;20.41;57.92
31681;BME280;18281;51.364;9.566;2023-04-22T12:59:56;99152.88;;;20.34;57.06
31681;BME280;18281;51.364;9.566;2023-04-22T13:02:22;99150.56;;;20.39;57.76
31681;BME280;18281;51.364;9.566;2023-04-22T13:04:47;99141.72;;;20.47;60.49
31681;BME280;18281;51.364;9.566;2023-04-22T13:07:12;99147.19;;;20.45;59.42
31681;BME280;18281;51.364;9.566;2023-04-22T13:09:38;99144.03;;;20.41;57.35
31681;BME280;18281;51.364;9.566;2023-04-22T13:12:03;99138.38;;;20.45;59.73